Time;durP1;ratioP1;P1;durP2;ratioP2;P2;SDS_P1;SDS_P2;PMS_P1;PMS_P2;Temp;Humidity;BMP_temperature;BMP_pressure;BME280_temperature;BME280_humidity;BME280_pressure;Samples;Min_cycle;Max_cycle;Signal;HPM_P1;HPM_P2
2022/01/08 00:01:11;;;;;;;5.93;5.50;;;5.60;94.80;;;5.53;66.95;94986.59;4991769;28;20482;-57
2022/01/08 00:03:38;;;;;;;8.10;5.53;;;5.60;94.60;;;5.56;67.00;94988.97;4991949;28;20486;-59
2022/01/08 00:06:06;;;;;;;6.83;4.70;;;5.60;94.80;;;5.57;67.13;94990.66;4992009;28;21018;-60
2022/01/08 00:08:33;;;;;;;6.23;5.63;;;5.70;94.60;;;5.59;66.67;94980.94;4988714;28;20871;-59
2022/01/08 00:11:01;;;;;;;5.20;4.70;;;5.70;94.50;;;5.60;66.82;94980.00;4990934;28;20541;-59
2022/01/08 00:13:28;;;;;;;8.90;4.77;;;5.70;94.60;;;5.61;66.76;94986.91;4991864;28;20455;-56
2022/01/08 00:15:55;;;;;;;5.87;4.70;;;5.70;94.50;;;5.60;66.75;94980.00;4991594;28;20505;-59
2022/01/08 00:18:24;;;;;;;5.30;4.83;;;5.70;94.40;;;5.59;66.70;94977.50;4992219;28;20458;-60
2022/01/08 00:20:51;;;;;;;6.27;4.87;;;5.70;94.40;;;5.57;66.83;94972.41;4990721;28;20478;-55
2022/01/08 00:23:19;;;;;;;6.50;4.70;;;5.70;94.60;;;5.55;67.01;94972.50;4992157;28;20489;-60
2022/01/08 00:25:46;;;;;;;5.17;4.73;;;5.70;94.40;;;5.53;67.16;94970.94;4992343;28;20481;-59
2022/01/08 00:28:13;;;;;;;5.40;3.77;;;5.70;94.40;;;5.53;66.65;94968.31;4992426;28;20454;-58
2022/01/08 00:30:41;;;;;;;5.37;4.50;;;5.60;94.40;;;5.50;66.63;94963.31;4991559;28;20612;-57
2022/01/08 00:33:08;;;;;;;4.40;4.00;;;5.60;94.40;;;5.50;67.18;94961.56;4991797;28;20458;-56
2022/01/08 00:35:36;;;;;;;3.60;3.30;;;5.60;94.60;;;5.51;66.85;94965.00;4991587;28;20485;-57
2022/01/08 00:38:04;;;;;;;5.13;4.57;;;5.60;94.50;;;5.51;66.81;94959.78;4991567;28;20483;-57
2022/01/08 00:40:31;;;;;;;4.47;4.07;;;5.60;94.40;;;5.50;66.98;94958.97;4991387;28;20497;-56
2022/01/08 00:42:58;;;;;;;4.93;4.43;;;5.60;94.60;;;5.52;66.75;94945.81;4991165;28;20446;-60
2022/01/08 00:45:26;;;;;;;5.73;4.60;;;5.60;94.50;;;5.52;67.05;94951.03;4991214;28;21019;-56
2022/01/08 00:47:53;;;;;;;4.83;4.37;;;5.60;94.50;;;5.53;66.95;94950.06;4991148;28;20455;-58
2022/01/08 00:50:21;;;;;;;4.50;4.10;;;5.60;94.60;;;5.54;66.81;94951.75;4994191;28;20478;-56
2022/01/08 00:52:50;;;;;;;5.50;4.77;;;5.60;94.50;;;5.54;66.71;94951.75;4993502;28;20589;-56
2022/01/08 00:55:17;;;;;;;5.17;4.43;;;5.70;94.50;;;5.53;66.81;94944.84;4991283;28;20812;-56
2022/01/08 00:57:45;;;;;;;4.00;3.70;;;5.60;94.50;;;5.55;66.83;94950.81;4991329;28;20458;-56
2022/01/08 01:00:13;;;;;;;4.63;3.97;;;5.60;94.50;;;5.55;66.79;94958.63;4990655;28;20474;-57
2022/01/08 01:02:41;;;;;;;4.27;3.97;;;5.60;94.60;;;5.54;66.89;94951.75;4990711;28;20550;-56
2022/01/08 01:05:09;;;;;;;5.53;4.47;;;5.70;94.70;;;5.52;66.85;94953.63;4990892;28;20573;-59
2022/01/08 01:07:36;;;;;;;3.70;3.50;;;5.60;94.40;;;5.50;67.03;94942.47;4991196;28;20834;-57
2022/01/08 01:10:06;;;;;;;4.57;4.23;;;5.60;94.50;;;5.49;66.90;94940.81;4991036;28;20479;-57
2022/01/08 01:12:34;;;;;;;5.60;4.80;;;5.60;94.60;;;5.48;66.75;94934.72;4990913;28;20459;-58
2022/01/08 01:15:01;;;;;;;4.57;4.17;;;5.60;94.60;;;5.48;67.00;94929.53;4990905;28;20529;-60
2022/01/08 01:17:28;;;;;;;4.00;3.70;;;5.60;94.50;;;5.48;66.89;94945.16;4990856;28;20467;-60
2022/01/08 01:19:56;;;;;;;5.80;3.80;;;5.60;94.60;;;5.47;67.00;94930.47;4990556;28;20494;-56
2022/01/08 01:22:28;;;;;;;4.67;4.20;;;5.60;94.70;;;5.49;66.91;94932.97;4990914;28;20509;-56
2022/01/08 01:25:02;;;;;;;4.07;3.77;;;5.60;94.60;;;5.49;67.16;94931.19;4991056;28;20580;-60
2022/01/08 01:27:54;;;;;;;4.17;3.77;;;5.60;94.70;;;5.48;67.18;94929.53;4989340;28;20446;-61
2022/01/08 01:30:33;;;;;;;4.30;3.90;;;5.60;94.70;;;5.47;67.13;94922.66;4990634;28;20474;-60
2022/01/08 01:41:23;;;;;;;3.30;3.03;;;5.50;94.80;;;5.41;67.23;94911.78;4990488;28;20517;-60
2022/01/08 01:49:21;;;;;;;3.60;3.30;;;5.50;94.80;;;5.42;66.96;94897.81;4989674;28;20815;-55
2022/01/08 01:51:49;;;;;;;4.60;3.33;;;5.50;94.80;;;5.42;67.10;94897.81;4988918;28;20478;-59
2022/01/08 01:54:16;;;;;;;7.00;3.53;;;5.50;94.80;;;5.41;67.55;94896.16;4990050;28;20451;-56
2022/01/08 01:56:43;;;;;;;3.50;3.30;;;5.50;94.80;;;5.42;67.58;94892.59;4990000;28;20475;-59
2022/01/08 01:59:13;;;;;;;4.47;3.80;;;5.50;94.80;;;5.41;67.53;94886.56;4989411;28;20465;-56
2022/01/08 02:01:40;;;;;;;3.67;3.40;;;5.50;94.90;;;5.41;67.40;94888.31;4987208;28;20479;-60
2022/01/08 02:04:08;;;;;;;4.17;3.87;;;5.50;94.80;;;5.42;67.24;94887.38;4990094;28;20497;-56
2022/01/08 02:06:35;;;;;;;2.87;2.67;;;5.50;95.10;;;5.41;67.43;94880.50;4990204;28;20482;-56
2022/01/08 02:09:02;;;;;;;2.90;2.70;;;5.50;95.00;;;5.38;67.39;94885.00;4988934;28;20467;-55
2022/01/08 02:11:29;;;;;;;3.77;2.90;;;5.50;94.80;;;5.32;67.15;94869.78;4989799;28;20486;-56
2022/01/08 02:14:03;;;;;;;3.00;2.70;;;5.50;94.80;;;5.33;67.41;94879.28;4989583;28;20455;-56
2022/01/08 02:16:32;;;;;;;3.53;3.23;;;5.40;94.90;;;5.32;67.56;94877.59;4989110;28;20482;-60
2022/01/08 02:18:59;;;;;;;3.67;3.37;;;5.50;94.90;;;5.32;67.33;94871.56;4988484;28;20529;-60
2022/01/08 02:21:28;;;;;;;3.03;2.67;;;5.40;94.90;;;5.32;67.26;94861.97;4989969;28;20466;-56
2022/01/08 02:23:55;;;;;;;2.67;2.47;;;5.40;94.90;;;5.32;67.54;94850.69;4990967;28;20475;-57
2022/01/08 02:26:22;;;;;;;3.63;3.33;;;5.50;95.10;;;5.32;67.47;94856.75;4989639;28;20470;-57
2022/01/08 02:28:49;;;;;;;2.80;2.60;;;5.40;95.10;;;5.32;67.47;94841.09;4988274;28;20458;-59
2022/01/08 02:31:23;;;;;;;3.93;3.57;;;5.40;95.00;;;5.32;67.65;94846.31;4990010;28;20511;-59
2022/01/08 02:33:52;;;;;;;2.60;2.40;;;5.40;95.10;;;5.32;67.33;94848.91;4989753;28;20940;-56
2022/01/08 02:36:20;;;;;;;3.60;3.30;;;5.40;94.90;;;5.31;67.89;94844.63;4987160;28;20525;-59
2022/01/08 02:38:50;;;;;;;3.97;3.57;;;5.40;95.10;;;5.29;67.61;94833.50;4989504;28;20450;-59
2022/01/08 02:41:17;;;;;;;4.73;3.60;;;5.40;95.00;;;5.27;67.61;94838.00;4988004;28;20561;-56
2022/01/08 02:43:52;;;;;;;3.77;3.47;;;5.40;95.10;;;5.30;67.26;94836.91;4989404;28;20455;-60
2022/01/08 02:46:19;;;;;;;6.70;2.40;;;5.40;95.10;;;5.28;67.65;94837.03;4987581;28;20469;-61
2022/01/08 02:48:46;;;;;;;3.63;3.43;;;5.40;95.00;;;5.27;66.97;94832.78;4986805;28;20458;-57
2022/01/08 02:51:14;;;;;;;3.10;2.90;;;5.40;95.10;;;5.27;67.63;94831.94;4988250;28;20466;-60
2022/01/08 02:53:41;;;;;;;2.77;2.57;;;5.40;95.00;;;5.27;67.50;94832.78;4988694;28;20465;-61
2022/01/08 02:56:10;;;;;;;5.17;3.57;;;5.40;95.10;;;5.28;67.33;94829.19;4985867;28;20471;-55
2022/01/08 02:58:37;;;;;;;3.23;3.03;;;5.40;95.00;;;5.27;67.55;94826.75;4987596;28;20451;-59
2022/01/08 03:01:05;;;;;;;2.93;2.70;;;5.40;95.10;;;5.28;67.40;94831.81;4986544;28;20474;-56
2022/01/08 03:03:32;;;;;;;3.90;2.50;;;5.40;95.00;;;5.27;67.36;94835.38;4987710;28;20473;-59
2022/01/08 03:06:00;;;;;;;3.60;3.40;;;5.40;95.00;;;5.28;67.83;94831.81;4987321;28;20518;-59
2022/01/08 03:08:27;;;;;;;3.50;3.30;;;5.40;95.10;;;5.28;67.47;94826.59;4988928;28;20534;-60
2022/01/08 03:10:54;;;;;;;4.90;4.00;;;5.40;95.00;;;5.30;67.83;94832.56;4986357;28;20927;-60
2022/01/08 03:13:23;;;;;;;4.27;3.87;;;5.40;95.30;;;5.29;67.83;94824.84;4988825;28;20463;-56
2022/01/08 03:15:51;;;;;;;3.97;3.67;;;5.40;95.30;;;5.33;67.54;94831.50;4988693;28;20486;-60
2022/01/08 03:18:18;;;;;;;3.60;3.30;;;5.40;95.20;;;5.35;67.63;94827.84;4989042;28;20469;-56
2022/01/08 03:20:49;;;;;;;4.50;3.93;;;5.40;95.10;;;5.39;67.46;94831.91;4989091;28;20482;-57
2022/01/08 03:23:17;;;;;;;4.40;4.00;;;5.50;95.20;;;5.42;67.65;94830.84;4987594;28;20450;-55
2022/01/08 03:25:45;;;;;;;6.63;3.83;;;5.50;95.20;;;5.43;67.55;94823.88;4988628;28;20497;-60
2022/01/08 03:28:13;;;;;;;4.80;4.37;;;5.50;95.00;;;5.43;67.59;94826.47;4989548;28;20801;-55
2022/01/08 03:30:41;;;;;;;7.13;3.80;;;5.50;95.20;;;5.43;67.71;94829.06;4988769;28;20501;-59
2022/01/08 03:33:09;;;;;;;3.87;3.53;;;5.50;95.20;;;5.43;67.43;94834.28;4989043;28;20566;-55
2022/01/08 03:35:36;;;;;;;4.47;3.93;;;5.60;95.20;;;5.44;67.58;94828.13;4987087;28;20505;-57
2022/01/08 03:38:03;;;;;;;3.23;2.93;;;5.50;95.10;;;5.43;67.55;94827.28;4988743;28;20461;-59
2022/01/08 03:40:31;;;;;;;3.07;2.87;;;5.50;95.10;;;5.43;67.57;94829.91;4989008;28;20594;-56
2022/01/08 03:42:58;;;;;;;3.53;3.33;;;5.50;95.00;;;5.39;67.37;94811.03;4988738;28;20458;-56
2022/01/08 03:45:25;;;;;;;3.53;3.23;;;5.50;95.10;;;5.36;67.30;94802.59;4987908;28;21028;-60
2022/01/08 03:48:07;;;;;;;2.90;2.70;;;5.50;95.00;;;5.34;67.48;94796.66;4988878;28;20459;-55
2022/01/08 03:50:34;;;;;;;3.67;3.43;;;5.50;95.10;;;5.32;67.96;94794.16;4987953;28;20477;-56
2022/01/08 03:53:01;;;;;;;3.40;3.20;;;5.40;95.20;;;5.29;67.58;94790.94;4990174;28;20450;-56
2022/01/08 03:55:29;;;;;;;3.40;3.20;;;5.40;95.10;;;5.26;67.66;94794.59;4990192;28;20481;-56
2022/01/08 03:57:56;;;;;;;3.30;3.10;;;5.40;95.30;;;5.24;68.18;94800.88;4992276;28;20450;-55
2022/01/08 04:00:23;;;;;;;4.20;3.63;;;5.40;95.40;;;5.21;67.93;94791.50;4992099;28;20489;-55
2022/01/08 04:02:52;;;;;;;3.07;2.87;;;5.30;95.30;;;5.18;68.02;94783.88;4992152;28;20454;-57
2022/01/08 04:05:21;;;;;;;3.40;3.13;;;5.30;95.50;;;5.15;68.16;94789.31;4992024;28;20498;-57
2022/01/08 04:07:48;;;;;;;3.40;3.13;;;5.30;95.60;;;5.14;68.61;94779.81;4991610;28;21006;-60
2022/01/08 04:10:15;;;;;;;3.80;3.40;;;5.30;95.80;;;5.13;68.69;94779.00;4991769;28;20891;-60
2022/01/08 04:12:46;;;;;;;6.10;3.40;;;5.30;95.70;;;5.14;68.47;94782.44;4991607;28;20541;-60
2022/01/08 04:15:33;;;;;;;3.10;2.80;;;5.30;95.70;;;5.13;68.40;94791.22;4991369;28;20534;-56
2022/01/08 04:18:00;;;;;;;4.27;3.87;;;5.30;95.70;;;5.14;68.37;94796.31;4991409;28;20461;-56
2022/01/08 04:20:29;;;;;;;5.30;3.87;;;5.30;95.60;;;5.13;68.43;94805.06;4988868;28;21032;-60
2022/01/08 04:22:56;;;;;;;3.10;2.90;;;5.30;95.70;;;5.13;68.51;94789.44;4989599;28;20458;-59
2022/01/08 04:25:24;;;;;;;4.60;3.20;;;5.30;95.90;;;5.14;68.61;94785.88;4992506;28;20498;-57
2022/01/08 04:27:52;;;;;;;3.70;3.40;;;5.30;95.80;;;5.14;68.54;94790.25;4991344;28;20461;-56
2022/01/08 04:30:19;;;;;;;4.10;3.80;;;5.30;95.90;;;5.14;68.15;94787.63;4985470;28;20535;-56
2022/01/08 04:32:46;;;;;;;3.80;3.50;;;5.30;95.90;;;5.13;68.68;94791.22;4988473;28;20455;-56
2022/01/08 04:35:14;;;;;;;3.50;3.20;;;5.30;95.80;;;5.12;68.64;94792.13;4991485;28;21013;-57
2022/01/08 04:37:42;;;;;;;3.33;3.13;;;5.30;96.00;;;5.11;68.77;94782.66;4990807;28;20458;-56
2022/01/08 04:40:11;;;;;;;4.03;3.40;;;5.20;95.80;;;5.09;68.88;94792.34;4989698;28;20486;-58
2022/01/08 04:42:38;;;;;;;4.17;3.20;;;5.20;96.10;;;5.11;68.78;94780.91;4990749;28;20798;-58
2022/01/08 04:45:06;;;;;;;4.93;3.03;;;5.20;96.10;;;5.11;68.84;94788.72;4989460;28;21024;-56
2022/01/08 04:47:34;;;;;;;4.70;3.90;;;5.20;96.10;;;5.13;68.85;94788.59;4988035;28;20542;-59
2022/01/08 04:50:01;;;;;;;3.67;3.17;;;5.20;96.10;;;5.13;68.70;94779.00;4991872;28;21002;-60
2022/01/08 04:52:28;;;;;;;3.33;3.03;;;5.30;96.00;;;5.14;68.54;94775.47;4993628;28;20469;-56
2022/01/08 04:54:57;;;;;;;4.70;3.20;;;5.30;96.00;;;5.13;68.71;94773.78;4990860;28;20505;-59
2022/01/08 04:57:24;;;;;;;3.90;2.30;;;5.30;96.10;;;5.14;68.76;94782.44;4988815;28;20466;-55
2022/01/08 04:59:51;;;;;;;2.80;2.60;;;5.30;96.20;;;5.14;68.51;94780.69;4988348;28;20458;-56
2022/01/08 05:02:19;;;;;;;3.23;3.00;;;5.30;95.90;;;5.14;68.79;94785.03;4987826;28;20525;-56
2022/01/08 05:04:46;;;;;;;2.80;2.63;;;5.30;96.10;;;5.16;68.68;94793.59;4988363;28;20497;-60
2022/01/08 05:07:13;;;;;;;3.20;3.00;;;5.30;96.10;;;5.16;68.71;94798.81;4988041;28;20481;-60
2022/01/08 05:09:40;;;;;;;3.23;2.97;;;5.30;96.10;;;5.17;68.86;94795.25;4989728;28;20789;-56
2022/01/08 05:12:10;;;;;;;3.37;2.70;;;5.30;96.10;;;5.18;68.69;94797.75;4988356;28;20470;-59
2022/01/08 05:14:37;;;;;;;2.50;2.30;;;5.30;96.10;;;5.20;68.64;94790.66;4990595;28;20462;-56
2022/01/08 05:17:05;;;;;;;3.03;2.73;;;5.30;95.90;;;5.21;68.50;94781.06;4989612;28;20459;-59
2022/01/08 05:19:43;;;;;;;2.47;2.30;;;5.30;96.10;;;5.24;68.74;94787.84;4986763;28;20459;-55
2022/01/08 05:22:18;;;;;;;2.77;2.57;;;5.30;96.20;;;5.23;68.48;94784.38;4990019;28;20504;-60
2022/01/08 05:24:45;;;;;;;3.27;2.53;;;5.30;96.00;;;5.24;68.67;94772.19;4991404;28;20446;-56
2022/01/08 05:27:17;;;;;;;2.87;2.67;;;5.40;96.10;;;5.21;68.59;94779.28;4990386;28;20974;-60
2022/01/08 05:29:44;;;;;;;3.23;2.20;;;5.30;96.00;;;5.21;68.94;94781.06;4989985;28;20489;-59
2022/01/08 05:32:16;;;;;;;1.93;1.83;;;5.30;96.20;;;5.21;68.72;94781.88;4987265;28;20945;-55
2022/01/08 05:34:44;;;;;;;2.60;2.40;;;5.30;96.10;;;5.22;68.82;94790.56;4989020;28;20455;-59
2022/01/08 05:37:11;;;;;;;2.47;2.33;;;5.30;96.40;;;5.22;68.45;94782.72;4990582;28;20490;-57
2022/01/08 05:39:39;;;;;;;2.53;2.43;;;5.40;96.20;;;5.24;68.82;94788.66;4985714;28;20463;-56
2022/01/08 05:42:06;;;;;;;2.33;2.13;;;5.30;96.10;;;5.27;68.72;94785.00;4989441;28;20454;-56
2022/01/08 05:44:35;;;;;;;2.70;2.50;;;5.40;96.30;;;5.28;68.72;94786.66;4989731;28;20458;-59
2022/01/08 05:47:02;;;;;;;1.97;1.87;;;5.40;96.30;;;5.29;68.88;94778.72;4990213;28;20823;-56
2022/01/08 05:49:33;;;;;;;3.00;2.80;;;5.40;96.20;;;5.32;68.95;94778.50;4990564;28;20447;-60
2022/01/08 05:52:01;;;;;;;3.30;2.60;;;5.40;96.10;;;5.33;69.24;94782.78;4990698;28;20477;-64
2022/01/08 05:54:28;;;;;;;2.27;2.17;;;5.40;96.50;;;5.33;68.88;94774.97;4988660;28;20939;-60
2022/01/08 05:56:55;;;;;;;3.10;2.80;;;5.40;96.20;;;5.35;68.77;94775.69;4990768;28;20470;-56
2022/01/08 05:59:26;;;;;;;3.20;2.57;;;5.50;96.30;;;5.39;68.85;94765.84;4988946;28;20462;-60
2022/01/08 06:01:56;;;;;;;2.70;2.50;;;5.50;96.30;;;5.40;69.02;94762.31;4988241;28;20501;-56
2022/01/08 06:04:23;;;;;;;3.77;3.17;;;5.50;96.30;;;5.42;68.54;94760.41;4988822;28;20450;-60
2022/01/08 06:06:50;;;;;;;2.63;2.37;;;5.50;96.10;;;5.43;68.97;94764.69;4988055;28;20489;-60
2022/01/08 06:09:17;;;;;;;3.57;2.57;;;5.50;96.30;;;5.43;68.57;94767.31;4988896;28;20839;-61
2022/01/08 06:11:46;;;;;;;3.57;2.60;;;5.50;96.10;;;5.45;68.87;94762.78;4987568;28;20550;-60
2022/01/08 06:14:14;;;;;;;3.20;2.90;;;5.60;96.40;;;5.47;68.89;94760.06;4985837;28;20454;-57
2022/01/08 06:16:41;;;;;;;3.13;2.90;;;5.50;96.40;;;5.50;68.77;94762.47;4988167;28;21049;-56
2022/01/08 06:19:11;;;;;;;3.00;2.60;;;5.60;96.20;;;5.53;68.68;94764.84;4987523;28;20454;-62
2022/01/08 06:21:38;;;;;;;2.53;2.33;;;5.60;96.30;;;5.55;68.52;94765.59;4985138;28;20482;-56
2022/01/08 06:24:07;;;;;;;3.67;3.07;;;5.60;96.20;;;5.56;68.45;94768.09;4988052;28;20457;-56
2022/01/08 06:26:34;;;;;;;3.33;3.07;;;5.70;96.10;;;5.57;68.38;94764.50;4986829;28;20966;-56
2022/01/08 06:29:02;;;;;;;3.60;3.30;;;5.70;96.10;;;5.60;68.23;94760.84;4984551;28;20451;-57
2022/01/08 06:31:30;;;;;;;2.43;2.33;;;5.70;96.00;;;5.61;68.29;94761.69;4986186;28;20884;-58
2022/01/08 06:33:57;;;;;;;5.17;2.87;;;5.70;96.10;;;5.64;68.57;94761.47;4988696;28;20450;-56
2022/01/08 06:36:26;;;;;;;2.93;2.70;;;5.70;96.10;;;5.66;68.18;94759.59;4985556;28;20564;-59
2022/01/08 06:38:54;;;;;;;2.63;2.47;;;5.80;96.00;;;5.68;68.67;94758.50;4987295;28;20505;-60
2022/01/08 06:41:21;;;;;;;2.23;2.07;;;5.80;96.40;;;5.72;68.21;94754.75;4986126;28;20478;-60
2022/01/08 06:43:48;;;;;;;3.13;2.83;;;5.80;95.90;;;5.76;68.53;94750.13;4989355;28;20465;-60
2022/01/08 06:46:16;;;;;;;2.80;2.60;;;5.80;96.00;;;5.79;68.27;94754.28;4989381;28;20501;-59
2022/01/08 06:48:43;;;;;;;3.03;2.73;;;5.90;95.80;;;5.81;68.05;94745.41;4988948;28;20529;-60
2022/01/08 06:51:11;;;;;;;2.90;2.70;;;5.90;95.80;;;5.85;68.04;94749.44;4986247;28;20913;-57
2022/01/08 06:53:40;;;;;;;4.13;2.97;;;5.90;95.80;;;5.87;68.25;94752.78;4989305;28;20482;-58
2022/01/08 06:56:07;;;;;;;4.10;3.17;;;6.00;95.90;;;5.88;68.30;94754.44;4988616;28;21059;-57
2022/01/08 06:58:35;;;;;;;3.63;2.60;;;6.00;95.90;;;5.92;68.01;94755.06;4989629;28;20545;-56
2022/01/08 07:01:02;;;;;;;5.40;3.23;;;6.00;95.90;;;5.94;67.69;94758.38;4989691;28;20474;-57
2022/01/08 07:03:30;;;;;;;4.27;2.83;;;6.00;95.80;;;5.98;68.13;94759.84;4987355;28;20450;-57
2022/01/08 07:05:57;;;;;;;2.60;2.50;;;6.10;95.90;;;6.01;67.54;94754.41;4989531;28;20494;-57
2022/01/08 07:08:24;;;;;;;2.63;2.43;;;6.10;95.70;;;6.02;67.84;94757.81;4989166;28;20463;-57
2022/01/08 07:10:53;;;;;;;3.03;2.83;;;6.10;95.60;;;6.05;67.44;94752.38;4986698;28;20493;-58
2022/01/08 07:13:20;;;;;;;5.00;2.70;;;6.10;95.60;;;6.05;67.99;94745.38;4987356;28;20537;-56
2022/01/08 07:15:48;;;;;;;3.03;2.83;;;6.20;95.70;;;6.09;67.85;94746.81;4989290;28;20493;-60
2022/01/08 07:18:16;;;;;;;3.37;2.57;;;6.20;95.70;;;6.13;67.25;94749.19;4988670;28;20454;-61
2022/01/08 07:20:43;;;;;;;3.17;2.20;;;6.20;95.50;;;6.16;67.39;94751.56;4984603;28;20474;-60
2022/01/08 07:23:10;;;;;;;2.40;2.20;;;6.20;95.40;;;6.17;67.51;94750.63;4987566;28;20469;-60
2022/01/08 07:25:38;;;;;;;2.87;2.67;;;6.30;95.80;;;6.18;67.66;94749.66;4983743;28;20566;-58
2022/01/08 07:28:07;;;;;;;2.60;2.40;;;6.30;95.40;;;6.17;67.33;94745.41;4987351;28;20835;-60
2022/01/08 07:30:34;;;;;;;3.00;2.10;;;6.30;95.40;;;6.17;67.10;94737.56;4989766;28;20482;-60
2022/01/08 07:33:01;;;;;;;2.23;1.97;;;6.30;95.40;;;6.19;67.34;94746.94;4988236;28;20454;-57
2022/01/08 07:35:29;;;;;;;2.83;2.60;;;6.30;95.50;;;6.24;67.01;94744.81;4987896;28;20474;-62
2022/01/08 07:37:56;;;;;;;2.60;2.40;;;6.30;95.40;;;6.26;67.27;94742.09;4991305;28;20459;-60
2022/01/08 07:40:23;;;;;;;2.50;2.03;;;6.40;95.30;;;6.28;67.47;94753.25;4987823;28;20478;-60
2022/01/08 07:42:51;;;;;;;2.50;2.40;;;6.40;95.30;;;6.30;67.35;94753.97;4987571;28;20532;-60
2022/01/08 07:45:20;;;;;;;2.70;2.27;;;6.40;95.20;;;6.30;67.09;94751.34;4992589;28;20557;-58
2022/01/08 07:47:48;;;;;;;6.97;2.90;;;6.40;95.20;;;6.32;67.44;94746.00;4988152;28;20533;-60
2022/01/08 07:50:15;;;;;;;4.70;2.30;;;6.40;95.20;;;6.36;67.19;94753.50;4988707;28;20479;-60
2022/01/08 07:52:43;;;;;;;5.57;2.77;;;6.40;95.20;;;6.39;67.02;94740.19;4991106;28;20855;-60
2022/01/08 07:55:11;;;;;;;2.47;2.27;;;6.50;95.20;;;6.41;66.76;94735.72;4992508;28;20557;-57
2022/01/08 07:57:39;;;;;;;3.40;3.10;;;6.50;95.10;;;6.46;66.59;94745.81;4992778;28;20454;-57
2022/01/08 08:00:08;;;;;;;3.70;2.60;;;6.50;95.10;;;6.50;66.88;94749.00;4988804;28;20545;-56
2022/01/08 08:02:37;;;;;;;11.97;2.60;;;6.60;95.10;;;6.55;66.82;94757.31;4990030;28;20489;-58
2022/01/08 08:05:05;;;;;;;2.93;2.47;;;6.60;95.00;;;6.61;66.40;94754.22;4990018;28;20952;-60
2022/01/08 08:07:37;;;;;;;2.80;2.60;;;6.60;94.90;;;6.67;66.66;94758.16;4992185;28;20505;-57
2022/01/08 08:10:06;;;;;;;8.63;3.40;;;6.70;94.90;;;6.74;66.34;94747.09;4988645;28;20505;-59
2022/01/08 08:12:33;;;;;;;3.10;2.80;;;6.80;94.80;;;6.79;66.42;94750.19;4987842;28;20467;-61
2022/01/08 08:15:01;;;;;;;4.93;3.13;;;6.90;94.80;;;6.86;66.20;94753.13;4990539;28;21002;-58
2022/01/08 08:17:28;;;;;;;3.43;3.00;;;6.90;94.60;;;6.94;66.29;94742.94;4989492;28;20462;-56
2022/01/08 08:19:57;;;;;;;2.60;2.40;;;7.00;94.60;;;7.03;66.04;94751.00;4992158;28;20481;-61
2022/01/08 08:22:25;;;;;;;2.70;2.50;;;7.00;94.40;;;7.09;65.81;94745.28;4990055;28;20854;-61
2022/01/08 08:24:53;;;;;;;3.90;2.97;;;7.10;94.40;;;7.16;65.48;94749.06;4986932;28;20861;-59
2022/01/08 08:27:21;;;;;;;2.90;2.40;;;7.20;94.30;;;7.24;65.63;94748.47;4989208;28;20528;-58
2022/01/08 08:29:48;;;;;;;2.60;2.40;;;7.20;94.10;;;7.29;65.38;94728.00;4989558;28;20464;-57
2022/01/08 08:32:16;;;;;;;3.00;2.73;;;7.30;93.80;;;7.34;65.05;94733.69;4986349;28;20537;-60
2022/01/08 08:34:43;;;;;;;3.50;2.33;;;7.40;93.90;;;7.43;65.51;94738.16;4990386;28;20542;-56
2022/01/08 08:37:12;;;;;;;2.47;2.10;;;7.40;93.80;;;7.57;65.19;94734.44;4990849;28;20879;-60
2022/01/08 08:39:39;;;;;;;9.90;2.47;;;7.60;93.90;;;7.73;64.77;94744.50;4990051;28;20481;-61
2022/01/08 08:42:07;;;;;;;4.10;1.80;;;7.70;93.90;;;7.84;64.28;94744.44;4991296;28;20462;-62
2022/01/08 08:44:36;;;;;;;3.70;2.90;;;7.80;93.40;;;7.90;63.84;94738.72;4991921;28;20638;-64
2022/01/08 08:47:04;;;;;;;4.73;2.63;;;7.90;93.20;;;8.00;63.97;94725.66;4988563;28;20496;-62
2022/01/08 08:49:32;;;;;;;4.67;2.20;;;8.00;93.10;;;8.23;63.32;94722.94;4987136;28;20517;-63
2022/01/08 08:51:59;;;;;;;2.80;2.60;;;8.20;93.10;;;8.54;62.86;94717.75;4986437;28;20877;-60
2022/01/08 08:54:27;;;;;;;5.57;3.03;;;8.40;93.00;;;8.81;62.44;94714.50;4985297;28;20459;-62
2022/01/08 08:56:55;;;;;;;6.90;3.03;;;8.70;92.50;;;9.06;62.17;94718.47;4993199;28;20474;-59
2022/01/08 08:59:23;;;;;;;7.90;3.03;;;8.90;92.40;;;9.31;61.24;94711.88;4990875;28;21046;-59
2022/01/08 09:01:51;;;;;;;3.60;2.60;;;9.10;91.70;;;9.66;61.00;94710.50;4989436;28;20478;-56
2022/01/08 09:04:18;;;;;;;4.70;2.47;;;9.50;91.40;;;10.05;60.10;94702.63;4989183;28;20476;-59
2022/01/08 09:06:45;;;;;;;2.60;2.47;;;9.80;90.90;;;10.36;59.39;94707.72;4985186;28;20493;-63
2022/01/08 09:09:13;;;;;;;3.00;2.50;;;10.10;89.90;;;10.50;58.56;94713.47;4984710;28;20462;-61
2022/01/08 09:11:42;;;;;;;5.60;2.50;;;10.30;88.30;;;10.46;58.40;94705.06;4982666;28;20487;-63
2022/01/08 09:14:10;;;;;;;2.73;2.53;;;10.30;87.10;;;10.33;58.00;94697.50;4985854;28;21029;-63
2022/01/08 09:16:37;;;;;;;4.73;3.63;;;10.30;86.00;;;10.24;58.27;94690.44;4978949;28;20577;-62
2022/01/08 09:19:05;;;;;;;3.40;3.10;;;10.20;86.00;;;10.23;58.52;94694.00;4984194;28;20456;-63
2022/01/08 09:21:32;;;;;;;6.80;2.93;;;10.20;86.70;;;10.28;58.51;94683.06;4982965;28;20492;-63
2022/01/08 09:23:59;;;;;;;3.60;2.93;;;10.20;86.50;;;10.40;58.33;94677.53;4986181;28;20839;-63
2022/01/08 09:26:27;;;;;;;2.80;2.60;;;10.30;86.60;;;10.59;57.73;94686.31;4983517;28;20483;-61
2022/01/08 09:28:57;;;;;;;4.33;2.47;;;10.50;85.80;;;10.70;57.39;94683.50;4985933;28;20868;-63
2022/01/08 09:31:24;;;;;;;5.00;2.57;;;10.60;85.20;;;10.76;56.80;94682.09;4989236;28;20486;-62
2022/01/08 09:33:51;;;;;;;4.03;2.50;;;10.60;84.00;;;10.76;56.80;94667.13;4984864;28;20470;-58
2022/01/08 09:36:19;;;;;;;4.30;2.67;;;10.70;83.90;;;10.70;56.89;94680.84;4984385;28;20481;-65
2022/01/08 09:38:46;;;;;;;3.73;3.17;;;10.60;83.40;;;10.62;56.75;94664.97;4981179;28;20454;-62
2022/01/08 09:41:13;;;;;;;4.23;3.10;;;10.60;83.60;;;10.56;56.80;94665.56;4985563;28;20478;-58
2022/01/08 09:43:41;;;;;;;3.30;2.37;;;10.50;83.40;;;10.46;57.23;94660.34;4986153;28;20459;-56
2022/01/08 09:46:10;;;;;;;2.90;2.47;;;10.50;83.90;;;10.34;57.17;94649.19;4986781;28;20474;-58
2022/01/08 09:48:37;;;;;;;3.17;2.33;;;10.40;83.20;;;10.26;57.48;94653.47;4986652;28;20541;-58
2022/01/08 09:51:04;;;;;;;3.47;3.17;;;10.30;83.80;;;10.16;57.47;94648.22;4983966;28;20474;-57
2022/01/08 09:53:32;;;;;;;4.83;2.73;;;10.20;83.60;;;10.11;57.71;94643.41;4990274;28;20465;-57
2022/01/08 09:56:00;;;;;;;4.80;2.60;;;10.10;84.00;;;10.04;57.72;94645.78;4989278;28;21011;-60
2022/01/08 09:58:27;;;;;;;2.77;2.60;;;10.10;84.30;;;9.92;57.79;94646.09;4987599;28;20466;-61
2022/01/08 10:00:55;;;;;;;6.40;3.00;;;10.00;84.20;;;9.81;58.19;94641.81;4987330;28;20486;-56
2022/01/08 10:03:26;;;;;;;4.93;2.90;;;9.80;85.50;;;9.73;57.95;94637.28;4989067;28;20455;-58
2022/01/08 10:05:58;;;;;;;4.73;3.20;;;9.70;85.90;;;9.70;58.34;94624.44;4986561;28;20596;-60
2022/01/08 10:08:26;;;;;;;8.50;2.80;;;9.70;86.40;;;9.69;58.20;94633.25;4991268;28;20481;-61
2022/01/08 10:10:58;;;;;;;4.07;2.90;;;9.70;86.40;;;9.64;58.20;94622.38;4986911;28;20483;-61
2022/01/08 10:13:27;;;;;;;3.40;2.37;;;9.70;86.40;;;9.57;58.36;94619.44;4990126;28;20458;-62
2022/01/08 10:18:42;;;;;;;2.30;2.10;;;9.50;86.50;;;9.51;58.76;94617.38;4988877;28;20474;-59
2022/01/08 10:21:20;;;;;;;4.33;2.97;;;9.50;86.80;;;9.50;58.61;94615.75;4986970;28;20872;-58
2022/01/08 10:23:49;;;;;;;3.00;2.17;;;9.50;86.90;;;9.45;58.49;94613.53;4987243;28;20454;-58
2022/01/08 10:26:18;;;;;;;4.60;2.70;;;9.50;86.80;;;9.35;58.35;94606.63;4990270;28;20479;-62
2022/01/08 10:28:48;;;;;;;2.70;2.50;;;9.40;86.70;;;9.24;58.93;94604.97;4990893;28;20994;-59
2022/01/08 10:31:19;;;;;;;2.60;2.40;;;9.30;86.90;;;9.15;59.05;94601.38;4986466;28;20497;-61
2022/01/08 10:33:53;;;;;;;4.53;2.77;;;9.20;87.20;;;9.06;59.04;94610.06;4986595;28;20479;-58
2022/01/08 10:36:27;;;;;;;3.50;1.97;;;9.10;87.40;;;9.01;59.18;94594.72;4988754;28;21090;-61
2022/01/08 10:38:56;;;;;;;8.80;2.10;;;9.00;87.90;;;8.99;59.71;94590.63;4988829;28;20450;-58
2022/01/08 10:41:24;;;;;;;4.27;3.00;;;9.00;88.20;;;8.96;60.04;94597.78;4990289;28;20486;-58
2022/01/08 10:44:08;;;;;;;3.30;3.00;;;9.00;88.20;;;8.96;59.65;94592.53;4988544;28;20461;-58
2022/01/08 10:46:35;;;;;;;4.27;3.03;;;9.00;88.20;;;9.01;59.76;94586.03;4988877;28;21051;-62
2022/01/08 10:49:04;;;;;;;6.10;3.07;;;9.00;88.30;;;9.06;59.71;94578.59;4993117;28;20621;-62
2022/01/08 10:51:36;;;;;;;3.47;2.83;;;9.00;88.20;;;9.09;59.42;94575.69;4993600;28;20837;-57
2022/01/08 10:54:07;;;;;;;2.17;1.97;;;9.10;88.30;;;9.08;59.21;94576.69;4989204;28;20443;-62